Time;durP1;ratioP1;P1;durP2;ratioP2;P2;SDS_P1;SDS_P2;PMS_P1;PMS_P2;Temp;Humidity;BMP_temperature;BMP_pressure;BME280_temperature;BME280_humidity;BME280_pressure;Samples;Min_cycle;Max_cycle;Signal;HPM_P1;HPM_P2
2023/09/20 00:00:07;;;;;;;1999.90;999.90;;;18.90;99.90;;;;;;5011904;28;20934;-68
2023/09/20 00:02:33;;;;;;;1999.90;999.90;;;18.90;99.90;;;;;;5011791;28;20421;-68
2023/09/20 00:05:00;;;;;;;1999.90;999.90;;;18.90;99.90;;;;;;5011796;28;20835;-68
2023/09/20 00:07:26;;;;;;;1999.90;999.90;;;18.90;99.90;;;;;;5011931;28;20407;-67
2023/09/20 00:09:52;;;;;;;1999.90;999.90;;;18.90;99.90;;;;;;5011612;28;20970;-68
2023/09/20 00:12:18;;;;;;;1999.90;999.90;;;18.90;99.90;;;;;;5011605;28;20481;-68
2023/09/20 00:14:44;;;;;;;1999.90;999.90;;;18.90;99.90;;;;;;5011469;28;20948;-68
2023/09/20 00:17:09;;;;;;;1999.90;999.90;;;19.00;99.90;;;;;;5014635;28;20172;-68
2023/09/20 00:19:38;;;;;;;1999.90;999.90;;;19.00;99.90;;;;;;5015479;28;20204;-68
2023/09/20 00:22:05;;;;;;;1999.90;999.90;;;18.90;99.90;;;;;;5015502;28;20227;-68
2023/09/20 00:24:33;;;;;;;1999.90;999.90;;;18.90;99.90;;;;;;5015113;28;20411;-68
2023/09/20 00:26:59;;;;;;;1999.90;999.90;;;18.90;99.90;;;;;;5015421;28;20413;-68
2023/09/20 00:29:26;;;;;;;1999.90;999.90;;;18.80;99.90;;;;;;5015229;28;20814;-68
2023/09/20 00:31:52;;;;;;;1999.90;999.90;;;18.80;99.90;;;;;;5015449;28;20196;-68
2023/09/20 00:34:17;;;;;;;1999.90;999.90;;;18.80;99.90;;;;;;5015085;28;20768;-67
2023/09/20 00:36:44;;;;;;;1999.90;999.90;;;18.80;99.90;;;;;;5015189;28;20657;-68
2023/09/20 00:39:10;;;;;;;1999.90;999.90;;;18.80;99.90;;;;;;5015208;28;20189;-68
2023/09/20 00:41:36;;;;;;;1999.90;999.90;;;18.70;99.90;;;;;;5015047;28;20413;-68
2023/09/20 00:44:02;;;;;;;1999.90;999.90;;;18.80;99.90;;;;;;5014853;28;20419;-68
2023/09/20 00:46:29;;;;;;;1999.90;999.90;;;18.80;99.90;;;;;;5014986;28;20411;-68
2023/09/20 00:48:56;;;;;;;1999.90;999.90;;;18.80;99.90;;;;;;5014965;28;20222;-68
2023/09/20 00:51:23;;;;;;;1999.90;999.90;;;18.70;99.90;;;;;;5014948;28;20400;-68
2023/09/20 00:53:53;;;;;;;1999.90;999.90;;;18.60;99.90;;;;;;5014544;28;20420;-67
2023/09/20 00:56:18;;;;;;;1999.90;999.90;;;18.70;99.90;;;;;;5014878;28;20412;-68
2023/09/20 00:58:45;;;;;;;1999.90;999.90;;;18.70;99.90;;;;;;5014782;28;20462;-70
2023/09/20 01:01:12;;;;;;;1999.90;999.90;;;18.60;99.90;;;;;;5014901;28;20173;-68
2023/09/20 01:03:39;;;;;;;1999.90;999.90;;;18.50;99.90;;;;;;5014640;28;20428;-69
2023/09/20 01:06:08;;;;;;;1999.90;999.90;;;18.60;99.90;;;;;;5014645;28;20409;-69
2023/09/20 01:08:34;;;;;;;1999.90;999.90;;;18.60;99.90;;;;;;5014716;28;20483;-70
2023/09/20 01:11:00;;;;;;;1999.90;999.90;;;18.60;99.90;;;;;;5014716;28;20826;-69
2023/09/20 01:13:26;;;;;;;1999.90;999.90;;;18.60;99.90;;;;;;5014598;28;20213;-69
2023/09/20 01:15:52;;;;;;;1999.90;999.90;;;18.70;99.90;;;;;;5014420;28;20416;-69
2023/09/20 01:18:18;;;;;;;1999.90;999.90;;;18.70;99.90;;;;;;5014619;28;20494;-69
2023/09/20 01:20:44;;;;;;;1999.90;999.90;;;18.60;99.90;;;;;;5014492;28;20499;-69
2023/09/20 01:23:09;;;;;;;1999.90;999.90;;;18.70;99.90;;;;;;5014308;28;20596;-69
2023/09/20 01:25:39;;;;;;;1999.90;999.90;;;18.60;99.90;;;;;;5014158;28;20177;-68
2023/09/20 01:28:06;;;;;;;1999.90;999.90;;;18.70;99.90;;;;;;5013610;28;20214;-68
2023/09/20 01:30:37;;;;;;;1999.90;999.90;;;18.70;99.90;;;;;;5014320;28;20455;-69
2023/09/20 01:33:08;;;;;;;1999.90;999.90;;;18.60;99.90;;;;;;5014203;28;20427;-69
2023/09/20 01:35:34;;;;;;;1999.90;999.90;;;18.70;99.90;;;;;;5013987;28;20914;-69
2023/09/20 01:38:06;;;;;;;1999.90;999.90;;;18.70;99.90;;;;;;5014044;28;20946;-70
2023/09/20 01:40:33;;;;;;;1999.90;999.90;;;18.70;99.90;;;;;;5014372;28;20425;-68
2023/09/20 01:43:11;;;;;;;1999.90;999.90;;;18.70;99.90;;;;;;5014097;28;20469;-69
2023/09/20 01:45:37;;;;;;;1999.90;999.90;;;18.70;99.90;;;;;;5013957;28;20496;-69
2023/09/20 01:48:10;;;;;;;1999.90;999.90;;;18.70;99.90;;;;;;5013933;28;20565;-69
2023/09/20 01:50:37;;;;;;;1999.90;999.90;;;18.70;99.90;;;;;;5013846;28;20271;-69
2023/09/20 01:53:06;;;;;;;1999.90;999.90;;;18.70;99.90;;;;;;5013796;28;20416;-69
2023/09/20 01:55:31;;;;;;;1999.90;999.90;;;18.80;99.90;;;;;;5013936;28;20476;-69
2023/09/20 01:57:59;;;;;;;1999.90;999.90;;;18.80;99.90;;;;;;5013708;28;20492;-70
2023/09/20 02:00:33;;;;;;;1999.90;999.90;;;18.80;99.90;;;;;;5013643;28;20173;-69
2023/09/20 02:03:07;;;;;;;1999.90;999.90;;;18.80;99.90;;;;;;5013491;28;20489;-68
2023/09/20 02:05:36;;;;;;;1999.90;999.90;;;18.80;99.90;;;;;;5013623;28;20424;-70
2023/09/20 02:08:02;;;;;;;1999.90;999.90;;;18.90;99.90;;;;;;5013658;28;20432;-69
2023/09/20 02:10:28;;;;;;;1999.90;999.90;;;18.90;99.90;;;;;;5013605;28;20412;-68
2023/09/20 02:12:55;;;;;;;1999.90;999.90;;;18.90;99.90;;;;;;5013266;28;20461;-68
2023/09/20 02:15:24;;;;;;;1999.90;999.90;;;18.90;99.90;;;;;;5013289;28;20855;-69
2023/09/20 02:17:50;;;;;;;1999.90;999.90;;;18.90;99.90;;;;;;5013292;28;20414;-69
2023/09/20 02:20:20;;;;;;;1999.90;999.90;;;19.00;99.90;;;;;;5013353;28;20918;-69
2023/09/20 02:22:47;;;;;;;1999.90;999.90;;;18.90;99.90;;;;;;5013269;28;20461;-69
2023/09/20 02:25:14;;;;;;;1999.90;999.90;;;19.00;99.90;;;;;;5013070;28;20907;-69
2023/09/20 02:27:44;;;;;;;1999.90;999.90;;;19.00;99.90;;;;;;5013149;28;20411;-69
2023/09/20 02:30:14;;;;;;;1999.90;999.90;;;18.90;99.90;;;;;;5013034;28;20400;-69
2023/09/20 02:32:41;;;;;;;1999.90;999.90;;;18.90;99.90;;;;;;5013044;28;20444;-68
2023/09/20 02:35:07;;;;;;;1999.90;999.90;;;18.90;99.90;;;;;;5012777;28;20789;-68
2023/09/20 02:37:34;;;;;;;1999.90;999.90;;;18.90;99.90;;;;;;5012970;28;20817;-69
2023/09/20 02:40:00;;;;;;;1999.90;999.90;;;18.90;99.90;;;;;;5012855;28;20400;-69
2023/09/20 02:42:26;;;;;;;1999.90;999.90;;;18.90;99.90;;;;;;5012819;28;20514;-69
2023/09/20 02:44:53;;;;;;;1999.90;999.90;;;18.80;99.90;;;;;;5012564;28;20838;-69
2023/09/20 02:47:19;;;;;;;1999.90;999.90;;;18.80;99.90;;;;;;5012997;28;20496;-69
2023/09/20 02:49:50;;;;;;;1999.90;999.90;;;18.70;99.90;;;;;;5012619;28;20538;-68
2023/09/20 02:52:19;;;;;;;1999.90;999.90;;;18.80;99.90;;;;;;5012657;28;20182;-69
2023/09/20 02:54:45;;;;;;;1999.90;999.90;;;18.70;99.90;;;;;;5012435;28;20484;-68
2023/09/20 02:57:11;;;;;;;1999.90;999.90;;;18.70;99.90;;;;;;5012663;28;20502;-68
2023/09/20 02:59:41;;;;;;;1999.90;999.90;;;18.70;99.90;;;;;;5012547;28;20462;-68
2023/09/20 03:02:07;;;;;;;1999.90;999.90;;;18.70;99.90;;;;;;5012428;28;20431;-68
2023/09/20 03:04:33;;;;;;;1999.90;999.90;;;18.70;99.90;;;;;;5012226;28;20495;-69
2023/09/20 03:06:59;;;;;;;1999.90;999.90;;;18.60;99.90;;;;;;5012435;28;20186;-69
2023/09/20 03:09:25;;;;;;;1999.90;999.90;;;18.50;99.90;;;;;;5012370;28;20450;-69
2023/09/20 03:11:55;;;;;;;1999.90;999.90;;;18.50;99.90;;;;;;5012427;28;20470;-70
2023/09/20 03:14:23;;;;;;;1999.90;999.90;;;18.50;99.90;;;;;;5012289;28;20172;-69
2023/09/20 03:16:48;;;;;;;1999.90;999.90;;;18.40;99.90;;;;;;5012368;28;20412;-69
2023/09/20 03:19:14;;;;;;;1999.90;999.90;;;18.40;99.90;;;;;;5012277;28;20404;-69
2023/09/20 03:21:41;;;;;;;1999.90;999.90;;;18.30;99.90;;;;;;5012210;28;20261;-69
2023/09/20 03:24:07;;;;;;;1999.90;999.90;;;18.30;99.90;;;;;;5012043;28;20183;-69
2023/09/20 03:26:35;;;;;;;1999.90;999.90;;;18.30;99.90;;;;;;5012222;28;20462;-68
2023/09/20 03:29:04;;;;;;;1999.90;999.90;;;18.30;99.90;;;;;;5012280;28;21029;-69
2023/09/20 03:31:33;;;;;;;1999.90;999.90;;;18.30;99.90;;;;;;5012068;28;20415;-69
2023/09/20 03:34:03;;;;;;;1999.90;999.90;;;18.20;99.90;;;;;;5011982;28;20407;-69
2023/09/20 03:36:32;;;;;;;1999.90;999.90;;;18.10;99.90;;;;;;5012106;28;20441;-69
2023/09/20 03:38:58;;;;;;;1999.90;999.90;;;18.00;99.90;;;;;;5011765;28;20502;-68
2023/09/20 03:41:24;;;;;;;1999.90;999.90;;;17.90;99.90;;;;;;5012006;28;20412;-68
2023/09/20 03:43:50;;;;;;;1999.90;999.90;;;17.90;99.90;;;;;;5011876;28;20467;-68
2023/09/20 03:46:16;;;;;;;1999.90;999.90;;;17.80;99.90;;;;;;5012052;28;20239;-69
2023/09/20 03:48:42;;;;;;;1999.90;999.90;;;17.70;99.90;;;;;;5011953;28;20482;-68
2023/09/20 03:51:13;;;;;;;1999.90;999.90;;;17.60;99.90;;;;;;5013296;28;20410;-68
2023/09/20 03:53:39;;;;;;;1999.90;999.90;;;17.60;99.90;;;;;;5015878;28;20471;-68
2023/09/20 03:56:07;;;;;;;1999.90;999.90;;;17.50;99.90;;;;;;5015714;28;20903;-68
2023/09/20 03:58:34;;;;;;;1999.90;999.90;;;17.50;99.90;;;;;;5015877;28;20179;-68
2023/09/20 04:01:02;;;;;;;1999.90;999.90;;;17.40;99.90;;;;;;5015955;28;20416;-70
2023/09/20 04:03:28;;;;;;;1999.90;999.90;;;17.30;99.90;;;;;;5014865;28;20436;-69
2023/09/20 04:05:56;;;;;;;1999.90;999.90;;;17.20;99.90;;;;;;5023936;28;20418;-68
2023/09/20 04:08:22;;;;;;;1999.90;999.90;;;17.20;99.90;;;;;;5027295;28;20299;-69
2023/09/20 04:10:48;;;;;;;1999.90;999.90;;;17.20;99.90;;;;;;5035454;28;20417;-68
2023/09/20 04:13:17;;;;;;;1999.90;999.90;;;17.10;99.90;;;;;;5035278;28;20203;-68
2023/09/20 04:15:42;;;;;;;1999.90;999.90;;;17.10;99.90;;;;;;5035165;28;20189;-69
2023/09/20 04:18:09;;;;;;;1999.90;999.90;;;17.10;99.90;;;;;;5035303;28;20411;-69
2023/09/20 04:20:35;;;;;;;1999.90;999.90;;;17.00;99.90;;;;;;5035263;28;20183;-68
2023/09/20 04:23:02;;;;;;;1999.90;999.90;;;17.00;99.90;;;;;;5035317;28;20865;-69
2023/09/20 04:25:28;;;;;;;1999.90;999.90;;;17.00;99.90;;;;;;5034998;28;20466;-68
2023/09/20 04:27:53;;;;;;;1999.90;999.90;;;17.00;99.90;;;;;;5035144;28;20407;-68
2023/09/20 04:30:19;;;;;;;1999.90;999.90;;;17.00;99.90;;;;;;5035098;28;20231;-68
2023/09/20 04:32:44;;;;;;;1999.90;999.90;;;16.90;99.90;;;;;;5034949;28;20201;-69
2023/09/20 04:35:10;;;;;;;1999.90;999.90;;;16.90;99.90;;;;;;5034729;28;20219;-68
2023/09/20 04:37:35;;;;;;;1999.90;999.90;;;16.90;99.90;;;;;;5035055;28;20366;-68
2023/09/20 04:40:02;;;;;;;1999.90;999.90;;;16.90;99.90;;;;;;5034902;28;20172;-68
2023/09/20 04:42:32;;;;;;;1999.90;999.90;;;16.90;99.90;;;;;;5034846;28;20211;-68
2023/09/20 04:44:59;;;;;;;1999.90;999.90;;;16.90;99.90;;;;;;5034681;28;20437;-68
2023/09/20 04:47:24;;;;;;;1999.90;999.90;;;16.90;99.90;;;;;;5034709;28;20402;-68
2023/09/20 04:49:50;;;;;;;1999.90;999.90;;;16.90;99.90;;;;;;5034667;28;20534;-68
2023/09/20 04:52:16;;;;;;;1999.90;999.90;;;16.80;99.90;;;;;;5034861;28;20191;-68
2023/09/20 04:54:43;;;;;;;1999.90;999.90;;;16.80;99.90;;;;;;5034448;28;20745;-68
2023/09/20 04:57:12;;;;;;;1999.90;999.90;;;16.80;99.90;;;;;;5031725;28;20229;-68
2023/09/20 04:59:39;;;;;;;1999.90;999.90;;;16.80;99.90;;;;;;5020788;28;20438;-68
2023/09/20 05:02:06;;;;;;;1999.90;999.90;;;16.80;99.90;;;;;;5023134;28;20932;-68
2023/09/20 05:04:34;;;;;;;1999.90;999.90;;;16.80;99.90;;;;;;5034018;28;20485;-69
2023/09/20 05:07:06;;;;;;;1999.90;999.90;;;16.80;99.90;;;;;;5034423;28;20468;-69
2023/09/20 05:09:34;;;;;;;1999.90;999.90;;;16.70;99.90;;;;;;5034447;28;20484;-69
2023/09/20 05:12:00;;;;;;;1999.90;999.90;;;16.70;99.90;;;;;;5033982;28;20583;-69
2023/09/20 05:14:27;;;;;;;1999.90;999.90;;;16.70;99.90;;;;;;5034053;28;20407;-69
2023/09/20 05:16:52;;;;;;;1999.90;999.90;;;16.80;99.90;;;;;;5034136;28;20819;-69
2023/09/20 05:19:18;;;;;;;1999.90;999.90;;;16.80;99.90;;;;;;5034181;28;20406;-69
2023/09/20 05:21:45;;;;;;;1999.90;999.90;;;16.80;99.90;;;;;;5034112;28;20198;-69
2023/09/20 05:24:10;;;;;;;1999.90;999.90;;;16.80;99.90;;;;;;5034026;28;20182;-69
2023/09/20 05:26:36;;;;;;;1999.90;999.90;;;16.80;99.90;;;;;;5034372;28;20494;-70
2023/09/20 05:29:03;;;;;;;1999.90;999.90;;;16.80;99.90;;;;;;5033995;28;20587;-69
2023/09/20 05:31:29;;;;;;;1999.90;999.90;;;17.00;99.90;;;;;;5033760;28;20906;-69
2023/09/20 05:33:55;;;;;;;1999.90;999.90;;;16.80;99.90;;;;;;5033701;28;20465;-69
2023/09/20 05:36:23;;;;;;;1999.90;999.90;;;16.90;99.90;;;;;;5034172;28;20832;-69
2023/09/20 05:38:49;;;;;;;1999.90;999.90;;;16.90;99.90;;;;;;5033851;28;20557;-69
2023/09/20 05:41:17;;;;;;;1999.90;999.90;;;16.90;99.90;;;;;;5033855;28;20475;-69
2023/09/20 05:43:42;;;;;;;1999.90;999.90;;;16.80;99.90;;;;;;5033559;28;20423;-69
2023/09/20 05:46:08;;;;;;;1999.90;999.90;;;16.80;99.90;;;;;;5033445;28;20611;-69
2023/09/20 05:48:35;;;;;;;1999.90;999.90;;;16.80;99.90;;;;;;5033595;28;20206;-69
2023/09/20 05:51:01;;;;;;;1999.90;999.90;;;16.90;99.90;;;;;;5033697;28;20933;-69
2023/09/20 05:53:28;;;;;;;1999.90;999.90;;;17.00;99.90;;;;;;5033419;28;20937;-69
2023/09/20 05:55:54;;;;;;;1999.90;999.90;;;17.00;99.90;;;;;;5033314;28;20404;-67
2023/09/20 05:58:19;;;;;;;1999.90;999.90;;;17.00;99.90;;;;;;5033487;28;20459;-69
2023/09/20 06:00:45;;;;;;;1999.90;999.90;;;17.00;99.90;;;;;;5033380;28;20176;-69
2023/09/20 06:03:12;;;;;;;1999.90;999.90;;;17.00;99.90;;;;;;5033373;28;20199;-69
2023/09/20 06:05:38;;;;;;;1999.90;999.90;;;17.10;99.90;;;;;;5033254;28;20172;-69
2023/09/20 06:08:05;;;;;;;1999.90;999.90;;;17.00;99.90;;;;;;5033249;28;20957;-69
2023/09/20 06:10:31;;;;;;;1999.90;999.90;;;17.00;99.90;;;;;;5033338;28;20191;-69
2023/09/20 06:12:57;;;;;;;1999.90;999.90;;;17.00;99.90;;;;;;5032942;28;20451;-69
2023/09/20 06:15:23;;;;;;;1999.90;999.90;;;16.90;99.90;;;;;;5032554;28;20183;-69
2023/09/20 06:17:48;;;;;;;1999.90;999.90;;;16.90;99.90;;;;;;5033024;28;20169;-69
2023/09/20 06:20:22;;;;;;;1999.90;999.90;;;17.00;99.90;;;;;;5033208;28;20173;-67
2023/09/20 06:22:49;;;;;;;1999.90;999.90;;;17.00;99.90;;;;;;5022185;28;20198;-69
2023/09/20 06:25:16;;;;;;;1999.90;999.90;;;17.00;99.90;;;;;;5025907;28;20448;-69
2023/09/20 06:27:41;;;;;;;1999.90;999.90;;;16.90;99.90;;;;;;5027287;28;20450;-70
2023/09/20 06:30:12;;;;;;;1999.90;999.90;;;16.90;99.90;;;;;;5032740;28;20861;-69
2023/09/20 06:32:38;;;;;;;1999.90;999.90;;;16.90;99.90;;;;;;5032932;28;20268;-69
2023/09/20 06:35:05;;;;;;;1999.90;999.90;;;17.00;99.90;;;;;;5032647;28;20510;-69
2023/09/20 06:37:31;;;;;;;1999.90;999.90;;;17.00;99.90;;;;;;5019366;28;20423;-69
2023/09/20 06:39:57;;;;;;;1999.90;999.90;;;17.00;99.90;;;;;;5023028;28;20473;-68
2023/09/20 06:42:25;;;;;;;1999.90;999.90;;;17.10;99.90;;;;;;5024207;28;20200;-70
2023/09/20 06:44:55;;;;;;;1999.90;999.90;;;17.10;99.90;;;;;;5032492;28;20602;-69
2023/09/20 06:47:21;;;;;;;1999.90;999.90;;;17.20;99.90;;;;;;5032589;28;21147;-69
2023/09/20 06:49:47;;;;;;;1999.90;999.90;;;17.20;99.90;;;;;;5032510;28;20967;-69
2023/09/20 06:52:13;;;;;;;1999.90;999.90;;;17.20;99.90;;;;;;5032440;28;20480;-69
2023/09/20 06:54:39;;;;;;;1999.90;999.90;;;17.20;99.90;;;;;;5032154;28;20662;-68
2023/09/20 06:57:05;;;;;;;1999.90;999.90;;;17.30;99.90;;;;;;5032297;28;20408;-69
2023/09/20 06:59:32;;;;;;;1999.90;999.90;;;17.30;99.90;;;;;;5032292;28;20268;-69
2023/09/20 07:02:01;;;;;;;1999.90;999.90;;;17.40;99.90;;;;;;5032400;28;20807;-69
2023/09/20 07:04:27;;;;;;;1999.90;999.90;;;17.40;99.90;;;;;;5031995;28;20931;-69
2023/09/20 07:06:55;;;;;;;1999.90;999.90;;;17.40;99.90;;;;;;5032293;28;20403;-69
2023/09/20 07:09:21;;;;;;;1999.90;999.90;;;17.40;99.90;;;;;;5032125;28;20469;-70
2023/09/20 07:11:48;;;;;;;1999.90;999.90;;;17.40;99.90;;;;;;5032197;28;20537;-70
2023/09/20 07:14:17;;;;;;;1999.90;999.90;;;17.50;99.90;;;;;;5015478;28;20916;-69
2023/09/20 07:16:52;;;;;;;1999.90;999.90;;;17.50;99.90;;;;;;5012577;28;20423;-69
2023/09/20 07:19:22;;;;;;;1999.90;999.90;;;17.60;99.90;;;;;;5012481;28;20788;-68
2023/09/20 07:21:48;;;;;;;1999.90;999.90;;;17.60;99.90;;;;;;5012367;28;20513;-68
2023/09/20 07:24:14;;;;;;;1999.90;999.90;;;17.70;99.90;;;;;;5012060;28;20547;-69
2023/09/20 07:26:43;;;;;;;1999.90;999.90;;;17.70;99.90;;;;;;5011632;28;20422;-69
2023/09/20 07:29:13;;;;;;;1999.90;999.90;;;17.80;99.90;;;;;;5012303;28;20465;-69
2023/09/20 07:31:38;;;;;;;1999.90;999.90;;;17.90;99.90;;;;;;5012281;28;20401;-69
2023/09/20 07:34:04;;;;;;;1999.90;999.90;;;17.90;99.90;;;;;;5011958;28;20454;-69
2023/09/20 07:36:34;;;;;;;1999.90;999.90;;;18.00;99.90;;;;;;5012112;28;20174;-69
2023/09/20 07:39:00;;;;;;;1999.90;999.90;;;18.00;99.90;;;;;;5012219;28;20204;-70
2023/09/20 07:41:26;;;;;;;1999.90;999.90;;;18.00;99.90;;;;;;5011298;28;20929;-69
2023/09/20 07:43:53;;;;;;;1999.90;999.90;;;18.00;99.90;;;;;;5019801;28;20452;-69
2023/09/20 07:46:21;;;;;;;1999.90;999.90;;;18.10;99.90;;;;;;5022563;28;20311;-69
2023/09/20 07:48:53;;;;;;;1999.90;999.90;;;18.10;99.90;;;;;;5031737;28;20503;-69
2023/09/20 07:51:25;;;;;;;1999.90;999.90;;;18.20;99.90;;;;;;5031820;28;20423;-69
2023/09/20 07:53:54;;;;;;;1999.90;999.90;;;18.20;99.90;;;;;;5031390;28;20400;-70
2023/09/20 07:56:20;;;;;;;1999.90;999.90;;;18.30;99.90;;;;;;5031699;28;20867;-69
2023/09/20 07:58:47;;;;;;;1999.90;999.90;;;18.30;99.90;;;;;;5031639;28;20440;-69
2023/09/20 08:01:21;;;;;;;1999.90;999.90;;;18.40;99.90;;;;;;5031699;28;20414;-68
2023/09/20 08:03:58;;;;;;;1999.90;999.90;;;18.40;99.90;;;;;;5016135;28;20414;-69
2023/09/20 08:06:27;;;;;;;1999.90;999.90;;;18.50;99.90;;;;;;5021145;28;20413;-70
2023/09/20 08:08:55;;;;;;;1999.90;999.90;;;18.70;99.90;;;;;;5031551;28;20494;-69
2023/09/20 08:11:20;;;;;;;1999.90;999.90;;;18.80;99.90;;;;;;5031157;28;20779;-68
2023/09/20 08:13:46;;;;;;;1999.90;999.90;;;18.80;99.90;;;;;;5021882;28;20432;-69
2023/09/20 08:16:12;;;;;;;1999.90;999.90;;;18.90;99.90;;;;;;5025397;28;20181;-69
2023/09/20 08:21:29;;;;;;;1999.90;999.90;;;19.30;99.90;;;;;;5016828;28;20477;-70
2023/09/20 08:59:56;;;;;;;1999.90;999.90;;;20.50;99.90;;;;;;5010982;28;20408;-70
2023/09/20 09:02:24;;;;;;;1999.90;999.90;;;20.60;99.90;;;;;;5016619;28;20437;-69
2023/09/20 09:04:53;;;;;;;1999.90;999.90;;;20.80;99.90;;;;;;5016901;28;20186;-69
2023/09/20 09:07:19;;;;;;;1999.90;999.90;;;20.90;99.90;;;;;;5016266;28;20456;-69
2023/09/20 09:09:46;;;;;;;1999.90;999.90;;;21.00;99.90;;;;;;5016072;28;20464;-69
2023/09/20 09:12:12;;;;;;;1999.90;999.90;;;21.20;99.90;;;;;;5016713;28;20450;-68
2023/09/20 09:14:39;;;;;;;1999.90;999.90;;;21.40;99.90;;;;;;5015895;28;20441;-68
2023/09/20 09:17:07;;;;;;;1999.90;999.90;;;21.50;99.90;;;;;;5016971;28;20393;-70
2023/09/20 09:19:33;;;;;;;1999.90;999.90;;;21.70;99.90;;;;;;5016839;28;21004;-69
2023/09/20 09:22:00;;;;;;;1999.90;999.90;;;21.90;99.90;;;;;;5016841;28;20438;-71
2023/09/20 09:24:29;;;;;;;1999.90;999.90;;;22.10;99.90;;;;;;5017154;28;20422;-71
2023/09/20 09:27:08;;;;;;;1999.90;999.90;;;22.20;99.90;;;;;;5013614;28;20390;-71
2023/09/20 09:29:33;;;;;;;1999.90;999.90;;;22.20;99.90;;;;;;5013063;28;20429;-71
2023/09/20 09:32:04;;;;;;;1999.90;999.90;;;22.40;99.90;;;;;;5013108;28;20974;-70
2023/09/20 09:34:30;;;;;;;1999.90;999.90;;;22.40;99.90;;;;;;5012497;28;20644;-70
2023/09/20 09:36:56;;;;;;;1999.90;999.90;;;22.40;99.90;;;;;;5013344;28;20742;-70
2023/09/20 09:39:24;;;;;;;1999.90;999.90;;;22.50;99.90;;;;;;5013411;28;20404;-71
2023/09/20 09:41:51;;;;;;;1999.90;999.90;;;22.60;99.90;;;;;;5013605;28;20928;-70
2023/09/20 09:44:17;;;;;;;1999.90;999.90;;;22.70;99.90;;;;;;5012151;28;20419;-70
2023/09/20 09:46:43;;;;;;;1999.90;999.90;;;22.80;99.90;;;;;;5014154;28;20915;-69
2023/09/20 09:49:11;;;;;;;1999.90;999.90;;;23.00;99.90;;;;;;5012897;28;20827;-70
2023/09/20 09:51:50;;;;;;;1999.90;999.90;;;23.20;99.90;;;;;;5015263;28;20448;-69
2023/09/20 09:54:20;;;;;;;1999.90;999.90;;;23.30;99.90;;;;;;5015753;28;20419;-70
2023/09/20 09:56:46;;;;;;;1999.90;999.90;;;23.20;99.90;;;;;;5016003;28;20874;-70
2023/09/20 09:59:12;;;;;;;1999.90;999.90;;;23.00;99.90;;;;;;5015074;28;20622;-70
2023/09/20 10:01:39;;;;;;;1999.90;999.90;;;22.90;99.90;;;;;;5013399;28;20416;-69
2023/09/20 10:04:05;;;;;;;1999.90;999.90;;;22.90;99.90;;;;;;5015322;28;20177;-69
2023/09/20 10:06:35;;;;;;;1999.90;999.90;;;22.90;99.90;;;;;;5013662;28;20784;-69
2023/09/20 10:09:04;;;;;;;1999.90;999.90;;;22.90;99.90;;;;;;5019785;28;20452;-68
2023/09/20 10:11:30;;;;;;;1999.90;999.90;;;22.90;99.90;;;;;;5017894;28;20477;-69
2023/09/20 10:14:00;;;;;;;1999.90;999.90;;;23.00;99.90;;;;;;5017633;28;20402;-69
2023/09/20 10:16:28;;;;;;;1999.90;999.90;;;23.20;99.90;;;;;;5018386;28;20176;-69
2023/09/20 10:18:53;;;;;;;1999.90;999.90;;;23.40;99.90;;;;;;5017906;28;20395;-69
2023/09/20 10:21:26;;;;;;;1999.90;999.90;;;23.50;99.90;;;;;;5017917;28;20407;-69
2023/09/20 10:23:59;;;;;;;1999.90;999.90;;;23.50;99.90;;;;;;5026804;28;20172;-69
2023/09/20 10:26:26;;;;;;;1999.90;999.90;;;23.60;99.90;;;;;;5018646;28;20423;-69
2023/09/20 10:29:24;;;;;;;1999.90;999.90;;;23.60;99.90;;;;;;5018486;28;20468;-71
2023/09/20 10:31:52;;;;;;;1999.90;999.90;;;23.60;99.90;;;;;;5007730;28;20441;-70
2023/09/20 10:34:21;;;;;;;1999.90;999.90;;;23.50;99.50;;;;;;5012212;28;20404;-70
2023/09/20 10:36:53;;;;;;;1999.90;999.90;;;23.50;97.80;;;;;;5013100;28;20389;-69
2023/09/20 10:39:19;;;;;;;1999.90;999.90;;;23.30;97.20;;;;;;5013050;28;21244;-70
2023/09/20 10:41:46;;;;;;;1999.90;999.90;;;23.20;97.90;;;;;;5014141;28;20431;-69
2023/09/20 10:44:30;;;;;;;1999.90;999.90;;;23.10;98.50;;;;;;5006689;28;20269;-68
2023/09/20 10:47:04;;;;;;;1999.90;999.90;;;23.10;95.90;;;;;;5014621;28;20427;-69
2023/09/20 10:49:54;;;;;;;1999.90;999.90;;;23.00;93.90;;;;;;5015769;28;20469;-68
2023/09/20 10:52:58;;;;;;;1999.90;999.90;;;23.00;93.90;;;;;;5015857;28;20439;-69
2023/09/20 10:55:23;;;;;;;1999.90;999.90;;;23.00;94.90;;;;;;5014496;28;20400;-69
2023/09/20 10:57:50;;;;;;;1999.90;999.90;;;23.10;95.00;;;;;;5016333;28;20442;-68
2023/09/20 11:00:25;;;;;;;1999.90;999.90;;;23.10;94.50;;;;;;5016489;28;20573;-68
2023/09/20 11:02:52;;;;;;;1999.90;999.90;;;23.10;94.50;;;;;;5016585;28;20804;-69
2023/09/20 11:05:18;;;;;;;1999.90;999.90;;;23.10;95.70;;;;;;5014835;28;20388;-69
2023/09/20 11:07:46;;;;;;;1999.90;999.90;;;23.10;95.30;;;;;;5016849;28;20926;-68
2023/09/20 11:10:13;;;;;;;1999.90;999.90;;;23.10;95.80;;;;;;5015598;28;20438;-69
2023/09/20 11:12:43;;;;;;;1999.90;999.90;;;23.20;95.80;;;;;;5016241;28;20951;-69
2023/09/20 11:15:10;;;;;;;1999.90;999.90;;;23.40;95.90;;;;;;5015531;28;20477;-69
2023/09/20 11:17:36;;;;;;;1999.90;999.90;;;23.50;95.90;;;;;;5015694;28;20430;-69
2023/09/20 11:20:04;;;;;;;1999.90;999.90;;;23.60;95.50;;;;;;5016019;28;20648;-69
2023/09/20 11:22:31;;;;;;;1999.90;999.90;;;23.60;93.30;;;;;;5015262;28;20413;-68
2023/09/20 11:24:57;;;;;;;1999.90;999.90;;;23.50;93.10;;;;;;5015509;28;20394;-69
2023/09/20 11:27:24;;;;;;;1999.90;999.90;;;23.50;92.60;;;;;;5016007;28;20390;-69
2023/09/20 11:29:50;;;;;;;1999.90;999.90;;;23.50;92.70;;;;;;5015934;28;20437;-70
2023/09/20 11:32:21;;;;;;;1999.90;999.90;;;23.60;92.40;;;;;;5015899;28;20826;-69
2023/09/20 11:34:51;;;;;;;1999.90;999.90;;;23.70;92.20;;;;;;5014964;28;20437;-69
2023/09/20 11:37:21;;;;;;;1999.90;999.90;;;23.80;91.30;;;;;;5015320;28;20414;-69
2023/09/20 11:39:48;;;;;;;1999.90;999.90;;;23.80;90.50;;;;;;5014935;28;20499;-69
2023/09/20 11:42:27;;;;;;;1999.90;999.90;;;23.80;90.80;;;;;;5014383;28;20414;-69
2023/09/20 11:44:55;;;;;;;1999.90;999.90;;;23.90;90.10;;;;;;5015315;28;20421;-69
2023/09/20 11:47:21;;;;;;;1999.90;999.90;;;24.10;90.40;;;;;;5015102;28;20422;-69
2023/09/20 11:49:47;;;;;;;1999.90;999.90;;;24.30;90.10;;;;;;5015219;28;20542;-69
2023/09/20 11:52:17;;;;;;;1999.90;999.90;;;24.50;88.10;;;;;;5015225;28;20193;-67
2023/09/20 11:54:43;;;;;;;1999.90;999.90;;;24.60;85.70;;;;;;5008096;28;20452;-69
2023/09/20 11:57:18;;;;;;;1999.90;999.90;;;24.80;87.30;;;;;;5015409;28;20386;-69
2023/09/20 11:59:45;;;;;;;1999.90;999.90;;;25.00;85.60;;;;;;5015329;28;20870;-69
2023/09/20 12:02:14;;;;;;;1999.90;999.90;;;25.30;79.00;;;;;;5015322;28;20809;-69
2023/09/20 12:04:39;;;;;;;1999.90;999.90;;;25.50;74.20;;;;;;5014331;28;20386;-69
2023/09/20 12:07:08;;;;;;;1999.90;999.90;;;25.60;73.80;;;;;;5015342;28;20421;-69
2023/09/20 12:09:36;;;;;;;1999.90;999.90;;;25.80;74.80;;;;;;5014502;28;20284;-69
2023/09/20 12:12:05;;;;;;;1999.90;999.90;;;26.10;70.80;;;;;;5016609;28;20478;-69
2023/09/20 12:14:34;;;;;;;1999.90;999.90;;;26.10;61.90;;;;;;5018276;28;20419;-69
2023/09/20 12:17:00;;;;;;;1999.90;999.90;;;26.00;62.60;;;;;;5018671;28;20419;-69
2023/09/20 12:19:26;;;;;;;1999.90;999.90;;;25.90;57.80;;;;;;5018531;28;20939;-69
2023/09/20 12:21:51;;;;;;;1999.90;999.90;;;26.20;59.70;;;;;;5019017;28;20494;-70
2023/09/20 12:24:17;;;;;;;1999.90;999.90;;;26.60;58.50;;;;;;5018745;28;20648;-68
2023/09/20 12:26:43;;;;;;;1999.90;999.90;;;27.00;51.00;;;;;;5018775;28;20179;-70
2023/09/20 12:29:09;;;;;;;1999.90;999.90;;;27.10;46.80;;;;;;5018526;28;20200;-69
2023/09/20 12:31:34;;;;;;;1999.90;999.90;;;27.30;47.60;;;;;;5019218;28;20173;-69
2023/09/20 12:34:00;;;;;;;1999.90;999.90;;;27.50;42.10;;;;;;5019253;28;20474;-69
2023/09/20 12:36:30;;;;;;;1999.90;999.90;;;27.90;42.40;;;;;;5018358;28;20180;-69
2023/09/20 12:38:56;;;;;;;1999.90;999.90;;;28.20;36.20;;;;;;5018654;28;20506;-68